sensor_id;sensor_type;location;lat;lon;timestamp;pressure;altitude;pressure_sealevel;temperature;humidity
29045;BME280;16133;49.486;12.176;2022-12-10T00:01:21;96169.28;;;0.24;100.00
29045;BME280;16133;49.486;12.176;2022-12-10T00:03:47;96158.25;;;0.12;100.00
29045;BME280;16133;49.486;12.176;2022-12-10T00:06:15;96168.25;;;0.17;100.00
29045;BME280;16133;49.486;12.176;2022-12-10T00:08:40;96170.19;;;0.15;100.00
29045;BME280;16133;49.486;12.176;2022-12-10T00:11:09;96162.50;;;0.13;100.00
29045;BME280;16133;49.486;12.176;2022-12-10T00:13:36;96165.94;;;0.14;100.00
29045;BME280;16133;49.486;12.176;2022-12-10T00:16:03;96155.63;;;0.12;100.00
29045;BME280;16133;49.486;12.176;2022-12-10T00:18:31;96117.00;;;-0.20;100.00
29045;BME280;16133;49.486;12.176;2022-12-10T00:20:56;96149.09;;;-0.19;100.00
29045;BME280;16133;49.486;12.176;2022-12-10T00:23:21;96124.63;;;-0.45;100.00
29045;BME280;16133;49.486;12.176;2022-12-10T00:25:47;96124.59;;;-0.73;100.00
29045;BME280;16133;49.486;12.176;2022-12-10T00:28:12;96148.19;;;-0.84;100.00
29045;BME280;16133;49.486;12.176;2022-12-10T00:30:38;96150.84;;;-1.03;100.00
29045;BME280;16133;49.486;12.176;2022-12-10T00:33:03;96149.38;;;-1.25;100.00
29045;BME280;16133;49.486;12.176;2022-12-10T00:35:29;96141.81;;;-1.37;100.00
29045;BME280;16133;49.486;12.176;2022-12-10T00:37:54;96140.63;;;-1.43;100.00
29045;BME280;16133;49.486;12.176;2022-12-10T00:40:20;96129.25;;;-1.52;100.00
29045;BME280;16133;49.486;12.176;2022-12-10T00:42:45;96129.53;;;-1.35;100.00
29045;BME280;16133;49.486;12.176;2022-12-10T00:45:11;96130.31;;;-1.25;100.00
29045;BME280;16133;49.486;12.176;2022-12-10T00:47:36;96083.22;;;-1.41;100.00
29045;BME280;16133;49.486;12.176;2022-12-10T00:50:02;96125.78;;;-1.04;100.00
29045;BME280;16133;49.486;12.176;2022-12-10T00:52:27;96087.72;;;-1.15;100.00
29045;BME280;16133;49.486;12.176;2022-12-10T00:54:52;96129.97;;;-0.84;100.00
29045;BME280;16133;49.486;12.176;2022-12-10T00:57:18;96127.38;;;-0.84;100.00
29045;BME280;16133;49.486;12.176;2022-12-10T00:59:43;96146.78;;;-0.69;100.00
29045;BME280;16133;49.486;12.176;2022-12-10T01:02:08;96126.13;;;-0.80;100.00
29045;BME280;16133;49.486;12.176;2022-12-10T01:04:34;96045.97;;;-1.23;100.00
29045;BME280;16133;49.486;12.176;2022-12-10T01:06:59;96153.19;;;-0.54;100.00
29045;BME280;16133;49.486;12.176;2022-12-10T01:09:27;96153.75;;;-0.50;100.00
29045;BME280;16133;49.486;12.176;2022-12-10T01:11:54;96160.44;;;-0.47;100.00
29045;BME280;16133;49.486;12.176;2022-12-10T01:14:25;96154.41;;;-0.48;100.00
29045;BME280;16133;49.486;12.176;2022-12-10T01:16:56;96167.44;;;-0.48;100.00
29045;BME280;16133;49.486;12.176;2022-12-10T01:19:22;96157.16;;;-0.50;100.00
29045;BME280;16133;49.486;12.176;2022-12-10T01:21:51;96156.78;;;-0.55;100.00
29045;BME280;16133;49.486;12.176;2022-12-10T01:24:18;96131.44;;;-0.72;100.00
29045;BME280;16133;49.486;12.176;2022-12-10T01:26:43;96172.94;;;-0.51;100.00
29045;BME280;16133;49.486;12.176;2022-12-10T01:29:10;96176.63;;;-0.54;100.00
29045;BME280;16133;49.486;12.176;2022-12-10T01:31:36;96148.19;;;-0.74;100.00
29045;BME280;16133;49.486;12.176;2022-12-10T01:34:03;96178.44;;;-0.64;100.00
29045;BME280;16133;49.486;12.176;2022-12-10T01:36:35;96173.81;;;-0.79;100.00
29045;BME280;16133;49.486;12.176;2022-12-10T01:39:03;96185.22;;;-1.00;100.00
29045;BME280;16133;49.486;12.176;2022-12-10T01:41:35;96184.84;;;-1.24;100.00
29045;BME280;16133;49.486;12.176;2022-12-10T01:46:37;96189.06;;;-1.61;100.00
29045;BME280;16133;49.486;12.176;2022-12-10T01:49:09;96191.75;;;-1.82;100.00
29045;BME280;16133;49.486;12.176;2022-12-10T01:51:37;96181.44;;;-2.03;100.00
29045;BME280;16133;49.486;12.176;2022-12-10T01:54:06;96195.63;;;-2.07;100.00
29045;BME280;16133;49.486;12.176;2022-12-10T01:56:35;96190.69;;;-2.19;100.00
29045;BME280;16133;49.486;12.176;2022-12-10T01:59:01;96198.59;;;-2.30;100.00
29045;BME280;16133;49.486;12.176;2022-12-10T02:01:42;96206.19;;;-2.38;100.00
29045;BME280;16133;49.486;12.176;2022-12-10T02:04:31;96198.50;;;-2.50;100.00
29045;BME280;16133;49.486;12.176;2022-12-10T02:09:43;96199.44;;;-2.51;100.00
29045;BME280;16133;49.486;12.176;2022-12-10T02:12:25;96143.53;;;-2.85;100.00
29045;BME280;16133;49.486;12.176;2022-12-10T02:17:28;96175.81;;;-2.48;100.00
29045;BME280;16133;49.486;12.176;2022-12-10T02:20:02;96158.00;;;-2.52;100.00
29045;BME280;16133;49.486;12.176;2022-12-10T02:22:33;96176.41;;;-2.34;100.00
29045;BME280;16133;49.486;12.176;2022-12-10T02:25:00;96124.56;;;-2.46;100.00
29045;BME280;16133;49.486;12.176;2022-12-10T02:27:35;96149.84;;;-2.08;100.00
29045;BME280;16133;49.486;12.176;2022-12-10T02:30:06;96131.66;;;-1.98;100.00
29045;BME280;16133;49.486;12.176;2022-12-10T02:32:36;96127.31;;;-1.88;100.00
29045;BME280;16133;49.486;12.176;2022-12-10T02:35:07;96118.16;;;-1.92;100.00
29045;BME280;16133;49.486;12.176;2022-12-10T02:37:51;96107.59;;;-1.90;100.00
29045;BME280;16133;49.486;12.176;2022-12-10T02:40:23;96109.00;;;-1.77;100.00
29045;BME280;16133;49.486;12.176;2022-12-10T02:42:50;96124.06;;;-1.61;100.00
29045;BME280;16133;49.486;12.176;2022-12-10T02:45:17;96126.22;;;-1.57;100.00
29045;BME280;16133;49.486;12.176;2022-12-10T02:47:43;96130.63;;;-1.48;100.00
29045;BME280;16133;49.486;12.176;2022-12-10T02:50:10;96128.44;;;-1.42;100.00
29045;BME280;16133;49.486;12.176;2022-12-10T02:52:38;96135.69;;;-1.36;100.00
29045;BME280;16133;49.486;12.176;2022-12-10T02:55:03;96129.25;;;-1.32;100.00
29045;BME280;16133;49.486;12.176;2022-12-10T02:57:30;96134.16;;;-1.29;100.00
29045;BME280;16133;49.486;12.176;2022-12-10T03:00:05;96145.28;;;-1.27;100.00
29045;BME280;16133;49.486;12.176;2022-12-10T03:08:13;96173.47;;;-1.13;100.00
29045;BME280;16133;49.486;12.176;2022-12-10T03:11:01;96174.72;;;-1.08;100.00
29045;BME280;16133;49.486;12.176;2022-12-10T03:14:00;96177.56;;;-1.01;100.00
29045;BME280;16133;49.486;12.176;2022-12-10T03:16:41;96181.53;;;-0.97;100.00
29045;BME280;16133;49.486;12.176;2022-12-10T03:19:11;96189.59;;;-0.90;100.00
29045;BME280;16133;49.486;12.176;2022-12-10T03:21:39;96193.44;;;-0.85;100.00
29045;BME280;16133;49.486;12.176;2022-12-10T03:24:07;96190.41;;;-0.80;100.00
29045;BME280;16133;49.486;12.176;2022-12-10T03:26:33;96182.88;;;-0.83;100.00
29045;BME280;16133;49.486;12.176;2022-12-10T03:29:03;96193.13;;;-0.72;100.00
29045;BME280;16133;49.486;12.176;2022-12-10T03:31:31;96196.28;;;-0.69;100.00
29045;BME280;16133;49.486;12.176;2022-12-10T03:33:58;96189.97;;;-0.66;100.00
29045;BME280;16133;49.486;12.176;2022-12-10T03:36:24;96194.25;;;-0.65;100.00
29045;BME280;16133;49.486;12.176;2022-12-10T03:38:51;96194.06;;;-0.64;100.00
29045;BME280;16133;49.486;12.176;2022-12-10T03:41:17;96189.97;;;-0.66;100.00
29045;BME280;16133;49.486;12.176;2022-12-10T03:43:50;96192.59;;;-0.66;100.00
29045;BME280;16133;49.486;12.176;2022-12-10T03:46:15;96189.16;;;-0.67;100.00
29045;BME280;16133;49.486;12.176;2022-12-10T03:48:41;96186.44;;;-0.65;100.00
29045;BME280;16133;49.486;12.176;2022-12-10T03:51:06;96190.81;;;-0.66;100.00
29045;BME280;16133;49.486;12.176;2022-12-10T03:53:31;96192.19;;;-0.71;100.00
29045;BME280;16133;49.486;12.176;2022-12-10T03:55:57;96190.00;;;-0.76;100.00
29045;BME280;16133;49.486;12.176;2022-12-10T03:58:22;96193.41;;;-0.75;100.00
29045;BME280;16133;49.486;12.176;2022-12-10T04:00:48;96200.56;;;-0.77;100.00
29045;BME280;16133;49.486;12.176;2022-12-10T04:03:13;96205.78;;;-0.77;100.00
29045;BME280;16133;49.486;12.176;2022-12-10T04:05:38;96203.16;;;-0.77;100.00
29045;BME280;16133;49.486;12.176;2022-12-10T04:08:04;96203.16;;;-0.77;100.00
29045;BME280;16133;49.486;12.176;2022-12-10T04:10:29;96190.97;;;-0.77;100.00
29045;BME280;16133;49.486;12.176;2022-12-10T04:12:55;96186.72;;;-0.78;100.00
29045;BME280;16133;49.486;12.176;2022-12-10T04:15:39;96179.84;;;-0.79;100.00
29045;BME280;16133;49.486;12.176;2022-12-10T04:18:23;96180.69;;;-0.78;100.00
29045;BME280;16133;49.486;12.176;2022-12-10T04:20:48;96178.06;;;-0.78;100.00
29045;BME280;16133;49.486;12.176;2022-12-10T04:23:32;96172.34;;;-0.82;100.00
29045;BME280;16133;49.486;12.176;2022-12-10T04:26:16;96168.38;;;-0.86;100.00
29045;BME280;16133;49.486;12.176;2022-12-10T04:29:00;96175.06;;;-0.83;100.00
29045;BME280;16133;49.486;12.176;2022-12-10T04:31:25;96167.25;;;-0.83;100.00
29045;BME280;16133;49.486;12.176;2022-12-10T04:33:50;96167.25;;;-0.83;100.00
29045;BME280;16133;49.486;12.176;2022-12-10T04:36:16;96165.63;;;-0.84;100.00
29045;BME280;16133;49.486;12.176;2022-12-10T04:38:41;96163.16;;;-0.86;100.00
29045;BME280;16133;49.486;12.176;2022-12-10T04:41:06;96164.81;;;-0.85;100.00
29045;BME280;16133;49.486;12.176;2022-12-10T04:43:41;96163.16;;;-0.86;100.00
29045;BME280;16133;49.486;12.176;2022-12-10T04:46:06;96170.00;;;-0.85;100.00
29045;BME280;16133;49.486;12.176;2022-12-10T04:48:32;96173.28;;;-0.83;100.00
29045;BME280;16133;49.486;12.176;2022-12-10T04:50:57;96171.50;;;-0.82;100.00
29045;BME280;16133;49.486;12.176;2022-12-10T04:53:22;96177.38;;;-0.80;100.00
29045;BME280;16133;49.486;12.176;2022-12-10T04:55:48;96175.19;;;-0.75;100.00
29045;BME280;16133;49.486;12.176;2022-12-10T04:58:13;96171.38;;;-0.81;100.00
29045;BME280;16133;49.486;12.176;2022-12-10T05:00:39;96173.81;;;-0.79;100.00
29045;BME280;16133;49.486;12.176;2022-12-10T05:03:04;96184.78;;;-0.76;100.00
29045;BME280;16133;49.486;12.176;2022-12-10T05:05:29;96184.13;;;-0.78;100.00
29045;BME280;16133;49.486;12.176;2022-12-10T05:07:55;96186.72;;;-0.78;100.00
29045;BME280;16133;49.486;12.176;2022-12-10T05:10:20;96188.63;;;-0.80;100.00
29045;BME280;16133;49.486;12.176;2022-12-10T05:12:45;96190.28;;;-0.79;100.00
29045;BME280;16133;49.486;12.176;2022-12-10T05:15:11;96191.94;;;-0.78;100.00
29045;BME280;16133;49.486;12.176;2022-12-10T05:17:36;96184.94;;;-0.77;100.00
29045;BME280;16133;49.486;12.176;2022-12-10T05:20:03;96193.28;;;-0.74;100.00
29045;BME280;16133;49.486;12.176;2022-12-10T05:22:28;96195.75;;;-0.72;100.00
29045;BME280;16133;49.486;12.176;2022-12-10T05:25:12;96195.75;;;-0.72;100.00
29045;BME280;16133;49.486;12.176;2022-12-10T05:27:37;96195.31;;;-0.68;100.00
29045;BME280;16133;49.486;12.176;2022-12-10T05:30:03;96196.84;;;-0.65;100.00
29045;BME280;16133;49.486;12.176;2022-12-10T05:32:29;96205.44;;;-0.65;100.00
29045;BME280;16133;49.486;12.176;2022-12-10T05:34:54;96208.06;;;-0.65;100.00
29045;BME280;16133;49.486;12.176;2022-12-10T05:37:19;96215.63;;;-0.62;100.00
29045;BME280;16133;49.486;12.176;2022-12-10T05:39:45;96211.06;;;-0.60;100.00
29045;BME280;16133;49.486;12.176;2022-12-10T05:42:10;96212.72;;;-0.59;100.00
29045;BME280;16133;49.486;12.176;2022-12-10T05:44:35;96210.94;;;-0.58;100.00
29045;BME280;16133;49.486;12.176;2022-12-10T05:47:01;96221.22;;;-0.57;100.00
29045;BME280;16133;49.486;12.176;2022-12-10T05:49:26;96222.84;;;-0.56;100.00
29045;BME280;16133;49.486;12.176;2022-12-10T05:51:54;96220.38;;;-0.57;100.00
29045;BME280;16133;49.486;12.176;2022-12-10T05:54:21;96223.00;;;-0.57;100.00
29045;BME280;16133;49.486;12.176;2022-12-10T05:56:46;96215.63;;;-0.62;100.00
29045;BME280;16133;49.486;12.176;2022-12-10T05:59:12;96223.97;;;-0.58;100.00
29045;BME280;16133;49.486;12.176;2022-12-10T06:01:37;96223.16;;;-0.59;100.00
29045;BME280;16133;49.486;12.176;2022-12-10T06:04:04;96219.84;;;-0.61;100.00
29045;BME280;16133;49.486;12.176;2022-12-10T06:06:32;96218.06;;;-0.60;100.00
29045;BME280;16133;49.486;12.176;2022-12-10T06:08:58;96223.28;;;-0.60;100.00
29045;BME280;16133;49.486;12.176;2022-12-10T06:11:24;96219.84;;;-0.61;100.00
29045;BME280;16133;49.486;12.176;2022-12-10T06:13:52;96213.81;;;-0.61;100.00
29045;BME280;16133;49.486;12.176;2022-12-10T06:16:17;96213.97;;;-0.63;100.00
29045;BME280;16133;49.486;12.176;2022-12-10T06:18:43;96216.56;;;-0.63;100.00
29045;BME280;16133;49.486;12.176;2022-12-10T06:21:13;96209.59;;;-0.62;100.00
29045;BME280;16133;49.486;12.176;2022-12-10T06:23:39;96215.75;;;-0.63;100.00
29045;BME280;16133;49.486;12.176;2022-12-10T06:26:06;96210.94;;;-0.68;100.00
29045;BME280;16133;49.486;12.176;2022-12-10T06:28:32;96208.91;;;-0.74;100.00
29045;BME280;16133;49.486;12.176;2022-12-10T06:30:58;96204.78;;;-0.76;100.00
29045;BME280;16133;49.486;12.176;2022-12-10T06:33:24;96214.78;;;-0.72;100.00
29045;BME280;16133;49.486;12.176;2022-12-10T06:35:50;96219.47;;;-0.75;100.00
29045;BME280;16133;49.486;12.176;2022-12-10T06:38:15;96223.59;;;-0.82;100.00
29045;BME280;16133;49.486;12.176;2022-12-10T06:40:40;96227.13;;;-0.83;100.00
29045;BME280;16133;49.486;12.176;2022-12-10T06:43:06;96224.00;;;-0.87;100.00
29045;BME280;16133;49.486;12.176;2022-12-10T06:45:31;96229.06;;;-0.85;100.00
29045;BME280;16133;49.486;12.176;2022-12-10T06:47:57;96224.28;;;-0.90;100.00
29045;BME280;16133;49.486;12.176;2022-12-10T06:50:22;96233.03;;;-0.91;100.00
29045;BME280;16133;49.486;12.176;2022-12-10T06:52:49;96232.09;;;-0.90;100.00
29045;BME280;16133;49.486;12.176;2022-12-10T06:55:15;96231.81;;;-0.87;100.00
29045;BME280;16133;49.486;12.176;2022-12-10T06:57:40;96237.72;;;-0.85;100.00
29045;BME280;16133;49.486;12.176;2022-12-10T07:00:06;96233.34;;;-0.84;100.00
29045;BME280;16133;49.486;12.176;2022-12-10T07:02:31;96236.47;;;-0.81;100.00
29045;BME280;16133;49.486;12.176;2022-12-10T07:04:57;96234.25;;;-0.76;100.00
29045;BME280;16133;49.486;12.176;2022-12-10T07:07:23;96232.63;;;-0.77;100.00
29045;BME280;16133;49.486;12.176;2022-12-10T07:09:48;96237.56;;;-0.74;100.00
29045;BME280;16133;49.486;12.176;2022-12-10T07:12:13;96235.78;;;-0.73;100.00
29045;BME280;16133;49.486;12.176;2022-12-10T07:14:39;96239.19;;;-0.63;100.00
29045;BME280;16133;49.486;12.176;2022-12-10T07:17:05;96243.72;;;-0.65;100.00
29045;BME280;16133;49.486;12.176;2022-12-10T07:19:30;96245.34;;;-0.64;100.00
29045;BME280;16133;49.486;12.176;2022-12-10T07:21:56;96235.09;;;-0.66;100.00
29045;BME280;16133;49.486;12.176;2022-12-10T07:24:21;96243.97;;;-0.59;100.00
29045;BME280;16133;49.486;12.176;2022-12-10T07:26:47;96235.06;;;-0.56;100.00
29045;BME280;16133;49.486;12.176;2022-12-10T07:29:15;96230.69;;;-0.56;100.00
29045;BME280;16133;49.486;12.176;2022-12-10T07:31:41;96231.09;;;-0.51;100.00
29045;BME280;16133;49.486;12.176;2022-12-10T07:34:06;96238.19;;;-0.53;100.00
29045;BME280;16133;49.486;12.176;2022-12-10T07:36:32;96220.38;;;-0.57;100.00
29045;BME280;16133;49.486;12.176;2022-12-10T07:38:57;96235.84;;;-0.46;100.00
29045;BME280;16133;49.486;12.176;2022-12-10T07:41:23;96243.41;;;-0.43;100.00
29045;BME280;16133;49.486;12.176;2022-12-10T07:43:49;96246.56;;;-0.39;100.00
29045;BME280;16133;49.486;12.176;2022-12-10T07:46:21;96251.06;;;-0.32;100.00
29045;BME280;16133;49.486;12.176;2022-12-10T07:48:48;96244.44;;;-0.26;100.00
29045;BME280;16133;49.486;12.176;2022-12-10T07:51:15;96242.25;;;-0.21;100.00
29045;BME280;16133;49.486;12.176;2022-12-10T07:53:41;96254.03;;;-0.17;100.00
29045;BME280;16133;49.486;12.176;2022-12-10T07:56:07;96255.53;;;-0.15;100.00
29045;BME280;16133;49.486;12.176;2022-12-10T07:58:33;96260.31;;;-0.10;100.00
29045;BME280;16133;49.486;12.176;2022-12-10T08:00:59;96258.41;;;-0.08;100.00
29045;BME280;16133;49.486;12.176;2022-12-10T08:03:30;96253.84;;;-0.06;100.00
29045;BME280;16133;49.486;12.176;2022-12-10T08:06:03;96255.22;;;-0.02;100.00
29045;BME280;16133;49.486;12.176;2022-12-10T08:08:29;96260.31;;;-0.01;100.00
29045;BME280;16133;49.486;12.176;2022-12-10T08:10:54;96260.00;;;0.03;100.00
29045;BME280;16133;49.486;12.176;2022-12-10T08:13:20;96273.72;;;0.05;100.00
29045;BME280;16133;49.486;12.176;2022-12-10T08:15:45;96268.91;;;0.10;100.00
29045;BME280;16133;49.486;12.176;2022-12-10T08:18:10;96265.03;;;0.14;100.00
29045;BME280;16133;49.486;12.176;2022-12-10T08:20:36;96271.75;;;0.16;100.00
29045;BME280;16133;49.486;12.176;2022-12-10T08:23:01;96270.06;;;0.25;100.00
29045;BME280;16133;49.486;12.176;2022-12-10T08:25:26;96276.06;;;0.35;100.00
29045;BME280;16133;49.486;12.176;2022-12-10T08:27:52;96278.50;;;0.46;100.00
29045;BME280;16133;49.486;12.176;2022-12-10T08:30:17;96287.91;;;0.57;100.00
29045;BME280;16133;49.486;12.176;2022-12-10T08:32:42;96276.56;;;0.66;100.00
29045;BME280;16133;49.486;12.176;2022-12-10T08:35:08;96281.31;;;0.80;100.00
29045;BME280;16133;49.486;12.176;2022-12-10T08:37:33;96287.59;;;0.87;100.00
29045;BME280;16133;49.486;12.176;2022-12-10T08:39:59;96279.69;;;0.96;100.00
29045;BME280;16133;49.486;12.176;2022-12-10T08:42:24;96286.19;;;1.10;100.00
29045;BME280;16133;49.486;12.176;2022-12-10T08:44:49;96285.97;;;1.21;100.00
29045;BME280;16133;49.486;12.176;2022-12-10T08:47:15;96291.09;;;1.31;100.00
29045;BME280;16133;49.486;12.176;2022-12-10T08:49:41;96301.81;;;1.37;100.00
29045;BME280;16133;49.486;12.176;2022-12-10T08:52:06;96303.81;;;1.43;100.00
29045;BME280;16133;49.486;12.176;2022-12-10T08:54:32;96297.31;;;1.48;100.00
29045;BME280;16133;49.486;12.176;2022-12-10T08:56:57;96296.34;;;1.49;100.00
29045;BME280;16133;49.486;12.176;2022-12-10T08:59:23;96297.38;;;1.56;100.00
29045;BME280;16133;49.486;12.176;2022-12-10T09:01:48;96303.44;;;1.56;100.00
29045;BME280;16133;49.486;12.176;2022-12-10T09:04:16;96302.28;;;1.59;100.00
29045;BME280;16133;49.486;12.176;2022-12-10T09:06:41;96302.16;;;1.60;100.00
29045;BME280;16133;49.486;12.176;2022-12-10T09:09:06;96302.69;;;1.64;100.00
29045;BME280;16133;49.486;12.176;2022-12-10T09:11:34;96307.91;;;1.64;100.00
29045;BME280;16133;49.486;12.176;2022-12-10T09:14:00;96303.09;;;1.77;100.00
29045;BME280;16133;49.486;12.176;2022-12-10T09:16:34;96307.50;;;1.76;100.00
29045;BME280;16133;49.486;12.176;2022-12-10T09:19:01;96312.94;;;1.83;100.00
29045;BME280;16133;49.486;12.176;2022-12-10T09:21:26;96315.25;;;1.86;100.00
29045;BME280;16133;49.486;12.176;2022-12-10T09:23:52;96312.34;;;1.89;100.00
29045;BME280;16133;49.486;12.176;2022-12-10T09:26:18;96311.22;;;1.91;100.00
29045;BME280;16133;49.486;12.176;2022-12-10T09:28:44;96313.84;;;1.91;100.00
29045;BME280;16133;49.486;12.176;2022-12-10T09:31:11;96318.91;;;1.93;100.00
29045;BME280;16133;49.486;12.176;2022-12-10T09:33:37;96305.16;;;1.91;100.00
29045;BME280;16133;49.486;12.176;2022-12-10T09:36:04;96298.81;;;1.93;100.00
29045;BME280;16133;49.486;12.176;2022-12-10T09:38:33;96306.19;;;1.98;100.00
29045;BME280;16133;49.486;12.176;2022-12-10T09:41:04;96309.78;;;1.97;100.00
29045;BME280;16133;49.486;12.176;2022-12-10T09:43:48;96296.25;;;2.02;100.00
29045;BME280;16133;49.486;12.176;2022-12-10T09:46:24;96308.22;;;2.12;100.00
29045;BME280;16133;49.486;12.176;2022-12-10T09:49:18;96306.31;;;2.14;100.00
29045;BME280;16133;49.486;12.176;2022-12-10T09:51:48;96296.03;;;2.21;100.00
29045;BME280;16133;49.486;12.176;2022-12-10T09:54:19;96291.81;;;2.28;100.00
29045;BME280;16133;49.486;12.176;2022-12-10T09:56:48;96293.78;;;2.34;100.00
29045;BME280;16133;49.486;12.176;2022-12-10T09:59:20;96293.66;;;2.35;100.00
29045;BME280;16133;49.486;12.176;2022-12-10T10:04:41;96292.53;;;2.46;100.00
29045;BME280;16133;49.486;12.176;2022-12-10T10:07:11;96258.16;;;2.33;100.00
29045;BME280;16133;49.486;12.176;2022-12-10T10:09:42;96297.22;;;2.60;100.00
29045;BME280;16133;49.486;12.176;2022-12-10T10:12:15;96299.03;;;2.68;100.00
29045;BME280;16133;49.486;12.176;2022-12-10T10:14:43;96292.47;;;2.64;100.00
29045;BME280;16133;49.486;12.176;2022-12-10T10:17:35;96294.13;;;2.73;100.00
29045;BME280;16133;49.486;12.176;2022-12-10T10:20:01;96292.34;;;2.73;100.00
29045;BME280;16133;49.486;12.176;2022-12-10T10:22:26;96297.56;;;2.73;100.00
29045;BME280;16133;49.486;12.176;2022-12-10T10:24:52;96290.84;;;2.71;100.00
29045;BME280;16133;49.486;12.176;2022-12-10T10:27:21;96289.69;;;2.65;100.00
29045;BME280;16133;49.486;12.176;2022-12-10T10:29:52;96285.09;;;2.59;100.00
29045;BME280;16133;49.486;12.176;2022-12-10T10:32:22;96285.91;;;2.60;100.00
29045;BME280;16133;49.486;12.176;2022-12-10T10:34:56;96272.00;;;2.59;100.00
29045;BME280;16133;49.486;12.176;2022-12-10T10:37:26;96277.59;;;2.64;100.00
29045;BME280;16133;49.486;12.176;2022-12-10T10:39:54;96266.44;;;2.62;100.00
29045;BME280;16133;49.486;12.176;2022-12-10T10:42:40;96277.59;;;2.64;100.00
29045;BME280;16133;49.486;12.176;2022-12-10T10:50:37;96287.59;;;2.77;100.00
29045;BME280;16133;49.486;12.176;2022-12-10T10:53:20;96288.31;;;2.87;100.00
29045;BME280;16133;49.486;12.176;2022-12-10T10:55:46;96295.84;;;2.98;100.00
29045;BME280;16133;49.486;12.176;2022-12-10T10:58:18;96292.59;;;3.04;100.00
29045;BME280;16133;49.486;12.176;2022-12-10T11:00:53;96289.81;;;3.06;100.00
29045;BME280;16133;49.486;12.176;2022-12-10T11:03:19;96283.44;;;3.16;100.00
29045;BME280;16133;49.486;12.176;2022-12-10T11:05:47;96283.13;;;3.27;100.00
29045;BME280;16133;49.486;12.176;2022-12-10T11:08:16;96278.06;;;3.42;99.96
29045;BME280;16133;49.486;12.176;2022-12-10T11:10:58;96279.22;;;3.56;98.75
29045;BME280;16133;49.486;12.176;2022-12-10T11:13:31;96284.16;;;3.67;95.90
29045;BME280;16133;49.486;12.176;2022-12-10T11:16:01;96286.78;;;3.67;93.92
29045;BME280;16133;49.486;12.176;2022-12-10T11:18:33;96286.44;;;3.62;92.62
29045;BME280;16133;49.486;12.176;2022-12-10T11:23:30;96280.03;;;3.48;94.01
29045;BME280;16133;49.486;12.176;2022-12-10T11:26:05;96279.22;;;3.40;93.80
29045;BME280;16133;49.486;12.176;2022-12-10T11:40:12;96266.97;;;2.74;97.88
29045;BME280;16133;49.486;12.176;2022-12-10T11:51:02;96252.72;;;2.34;99.31
29045;BME280;16133;49.486;12.176;2022-12-10T11:58:48;96260.78;;;2.07;100.00
29045;BME280;16133;49.486;12.176;2022-12-10T12:01:25;96254.53;;;2.00;100.00
29045;BME280;16133;49.486;12.176;2022-12-10T12:12:24;96257.25;;;1.90;100.00
29045;BME280;16133;49.486;12.176;2022-12-10T12:15:01;96255.75;;;1.88;100.00
29045;BME280;16133;49.486;12.176;2022-12-10T12:17:40;96261.72;;;1.98;100.00
29045;BME280;16133;49.486;12.176;2022-12-10T12:22:51;96263.84;;;1.95;100.00
29045;BME280;16133;49.486;12.176;2022-12-10T12:25:44;96262.59;;;1.81;100.00
29045;BME280;16133;49.486;12.176;2022-12-10T12:30:48;96271.00;;;1.67;100.00
29045;BME280;16133;49.486;12.176;2022-12-10T12:35:48;96274.44;;;1.67;100.00
29045;BME280;16133;49.486;12.176;2022-12-10T12:39:14;96265.84;;;1.57;100.00
29045;BME280;16133;49.486;12.176;2022-12-10T12:41:50;96271.38;;;1.54;100.00
29045;BME280;16133;49.486;12.176;2022-12-10T12:44:25;96271.25;;;1.56;100.00
29045;BME280;16133;49.486;12.176;2022-12-10T12:46:56;96268.75;;;1.54;100.00
29045;BME280;16133;49.486;12.176;2022-12-10T12:49:36;96268.63;;;1.56;100.00
29045;BME280;16133;49.486;12.176;2022-12-10T12:54:48;96264.38;;;1.55;100.00
29045;BME280;16133;49.486;12.176;2022-12-10T12:57:29;96267.28;;;1.52;100.00
29045;BME280;16133;49.486;12.176;2022-12-10T13:00:26;96272.00;;;1.48;100.00
29045;BME280;16133;49.486;12.176;2022-12-10T13:03:06;96273.34;;;1.52;100.00
29045;BME280;16133;49.486;12.176;2022-12-10T13:05:38;96274.88;;;1.63;100.00
29045;BME280;16133;49.486;12.176;2022-12-10T13:08:30;96271.97;;;1.66;100.00
29045;BME280;16133;49.486;12.176;2022-12-10T13:11:16;96267.63;;;1.74;100.00
29045;BME280;16133;49.486;12.176;2022-12-10T13:34:47;96296.50;;;1.29;100.00
29045;BME280;16133;49.486;12.176;2022-12-10T13:37:32;96291.41;;;1.28;100.00
29045;BME280;16133;49.486;12.176;2022-12-10T13:40:13;96296.81;;;1.26;100.00
29045;BME280;16133;49.486;12.176;2022-12-10T13:42:43;96305.44;;;1.27;100.00
29045;BME280;16133;49.486;12.176;2022-12-10T13:45:31;96305.25;;;1.38;100.00
29045;BME280;16133;49.486;12.176;2022-12-10T13:48:17;96324.56;;;1.27;100.00
29045;BME280;16133;49.486;12.176;2022-12-10T13:51:08;96325.81;;;1.23;100.00
29045;BME280;16133;49.486;12.176;2022-12-10T13:53:50;96314.28;;;1.26;100.00
29045;BME280;16133;49.486;12.176;2022-12-10T13:56:40;96330.38;;;1.21;100.00
29045;BME280;16133;49.486;12.176;2022-12-10T14:06:52;96348.50;;;1.05;100.00
29045;BME280;16133;49.486;12.176;2022-12-10T14:09:21;96346.03;;;1.04;100.00
29045;BME280;16133;49.486;12.176;2022-12-10T14:11:54;96343.72;;;1.01;100.00
29045;BME280;16133;49.486;12.176;2022-12-10T14:14:33;96346.50;;;0.99;100.00
29045;BME280;16133;49.486;12.176;2022-12-10T14:17:05;96347.75;;;0.95;100.00
29045;BME280;16133;49.486;12.176;2022-12-10T14:19:33;96350.47;;;1.03;100.00
29045;BME280;16133;49.486;12.176;2022-12-10T14:22:05;96348.09;;;1.00;100.00
29045;BME280;16133;49.486;12.176;2022-12-10T14:24:38;96359.16;;;0.94;100.00
29045;BME280;16133;49.486;12.176;2022-12-10T14:27:13;96357.94;;;0.88;100.00
29045;BME280;16133;49.486;12.176;2022-12-10T14:29:44;96361.66;;;0.86;100.00
29045;BME280;16133;49.486;12.176;2022-12-10T14:32:15;96355.72;;;0.93;100.00
29045;BME280;16133;49.486;12.176;2022-12-10T14:34:41;96368.16;;;0.82;100.00